Time;durP1;ratioP1;P1;durP2;ratioP2;P2;SDS_P1;SDS_P2;PMS_P1;PMS_P2;Temp;Humidity;BMP_temperature;BMP_pressure;BME280_temperature;BME280_humidity;BME280_pressure;Samples;Min_cycle;Max_cycle;Signal;HPM_P1;HPM_P2
2022/06/14 00:03:04;;;;;;;12.27;4.15;;;;;;;10.40;81.77;102414.72;5027708;28;20102;-86
2022/06/14 00:05:30;;;;;;;10.68;3.85;;;;;;;10.37;81.44;102414.75;5023587;28;20029;-86
2022/06/14 00:07:55;;;;;;;15.45;4.18;;;;;;;10.33;81.50;102419.03;5034550;28;20032;-86
2022/06/14 00:10:21;;;;;;;8.02;3.35;;;;;;;10.30;81.86;102413.84;5027559;28;20037;-86
2022/06/14 00:12:46;;;;;;;11.48;4.00;;;;;;;10.27;82.31;102419.88;5027562;28;20033;-86
2022/06/14 00:15:12;;;;;;;10.65;3.70;;;;;;;10.27;82.48;102419.03;5028389;28;20060;-86
2022/06/14 00:17:37;;;;;;;10.40;4.00;;;;;;;10.20;82.47;102412.97;5024229;28;20021;-86
2022/06/14 00:20:03;;;;;;;12.38;4.10;;;;;;;10.17;82.64;102415.53;5030776;28;20025;-86
2022/06/14 00:22:28;;;;;;;10.98;4.13;;;;;;;10.15;82.67;102412.06;5031162;28;20075;-86
2022/06/14 00:24:55;;;;;;;11.20;4.10;;;;;;;10.11;82.60;102420.66;5033126;28;20108;-86
2022/06/14 00:27:20;;;;;;;12.02;3.90;;;;;;;10.12;83.23;102418.94;5026180;28;20137;-86
2022/06/14 00:29:45;;;;;;;11.05;4.40;;;;;;;10.09;82.94;102417.22;5028710;28;20505;-86
2022/06/14 00:32:11;;;;;;;11.13;4.10;;;;;;;10.08;83.08;102420.66;5033051;28;20029;-86
2022/06/14 00:34:36;;;;;;;10.13;3.88;;;;;;;10.06;83.32;102424.97;5014141;28;20029;-86
2022/06/14 00:37:02;;;;;;;11.23;3.78;;;;;;;10.06;83.88;102422.38;5028667;28;20076;-86
2022/06/14 00:39:28;;;;;;;14.27;4.30;;;;;;;10.07;84.24;102421.53;5032782;28;20025;-86
2022/06/14 00:41:55;;;;;;;15.05;4.15;;;;;;;10.07;83.81;102424.09;5034469;28;20025;-86
2022/06/14 00:44:23;;;;;;;13.50;3.83;;;;;;;10.08;84.00;102419.78;5033703;28;20087;-86
2022/06/14 00:46:55;;;;;;;10.70;3.95;;;;;;;10.05;83.86;102423.22;5041770;28;20541;-86
2022/06/14 00:49:44;;;;;;;11.20;3.95;;;;;;;10.03;84.13;102421.50;5029787;28;20079;-86
2022/06/14 00:52:19;;;;;;;10.55;3.70;;;;;;;10.03;83.84;102426.69;5032239;28;20026;-86
2022/06/14 00:54:48;;;;;;;13.65;3.60;;;;;;;9.99;84.45;102428.38;5011769;28;20032;-86
2022/06/14 00:57:19;;;;;;;12.50;4.03;;;;;;;9.99;84.57;102419.75;5025195;28;20486;-86
2022/06/14 00:59:50;;;;;;;14.05;4.13;;;;;;;9.97;84.74;102413.69;5032488;28;20539;-86
2022/06/14 01:02:26;;;;;;;12.85;4.45;;;;;;;9.93;84.44;102409.38;5010950;28;20092;-86
2022/06/14 01:04:53;;;;;;;11.70;3.95;;;;;;;9.90;84.70;102410.22;5011602;28;20418;-86
2022/06/14 01:07:31;;;;;;;14.18;4.28;;;;;;;9.86;84.83;102403.28;5011827;28;20079;-86
2022/06/14 01:10:02;;;;;;;8.85;3.75;;;;;;;9.85;84.62;102409.31;5012727;28;20029;-86
2022/06/14 01:12:35;;;;;;;12.65;3.80;;;;;;;9.81;84.92;102411.06;5012531;28;20491;-86
2022/06/14 01:15:12;;;;;;;13.88;3.97;;;;;;;9.79;85.03;102401.53;4993737;28;20519;-86
2022/06/14 01:17:43;;;;;;;11.75;3.97;;;;;;;9.79;85.42;102396.34;5012501;28;20492;-86
2022/06/14 01:20:11;;;;;;;10.45;3.78;;;;;;;9.75;85.47;102394.63;5006597;28;20037;-86
2022/06/14 01:22:37;;;;;;;13.20;3.60;;;;;;;9.71;85.56;102401.50;5012051;28;20379;-86
2022/06/14 01:25:04;;;;;;;10.40;4.30;;;;;;;9.66;85.79;102395.44;5012563;28;20028;-86
2022/06/14 01:27:34;;;;;;;9.68;3.75;;;;;;;9.67;86.41;102404.06;5011342;28;20033;-86
2022/06/14 01:30:13;;;;;;;9.73;3.63;;;;;;;9.67;86.11;102402.34;4992327;28;20026;-86
2022/06/14 01:32:45;;;;;;;11.30;3.92;;;;;;;9.64;85.77;102404.03;5011366;28;20065;-86
2022/06/14 01:35:13;;;;;;;12.40;3.97;;;;;;;9.62;86.77;102401.44;5011291;28;20111;-86
2022/06/14 01:37:39;;;;;;;13.30;4.07;;;;;;;9.60;86.58;102391.97;5012122;28;20032;-86
2022/06/14 01:40:06;;;;;;;9.25;3.97;;;;;;;9.56;86.16;102400.53;5012047;28;20415;-86
2022/06/14 01:42:50;;;;;;;13.05;4.05;;;;;;;9.54;86.03;102392.78;4993016;28;20381;-86
2022/06/14 01:45:21;;;;;;;11.70;3.87;;;;;;;9.52;86.53;102397.97;5024486;28;20072;-86
2022/06/14 01:47:57;;;;;;;10.77;4.05;;;;;;;9.48;86.44;102393.59;4998716;28;20296;-86
2022/06/14 01:53:48;;;;;;;13.63;4.30;;;;;;;9.45;86.57;102392.72;5011888;28;20073;-86
2022/06/14 01:56:40;;;;;;;11.52;3.55;;;;;;;9.43;86.49;102390.13;5006085;28;20034;-86
2022/06/14 01:59:17;;;;;;;14.82;3.90;;;;;;;9.39;86.66;102388.41;5010134;28;20116;-86
2022/06/14 02:02:10;;;;;;;10.50;4.35;;;;;;;9.37;87.29;102381.47;5026956;28;20140;-86
2022/06/14 02:04:44;;;;;;;13.90;4.13;;;;;;;9.35;87.48;102381.44;5031362;28;20021;-86
2022/06/14 02:07:24;;;;;;;14.52;4.10;;;;;;;9.33;86.99;102379.72;5029466;28;20065;-86
2022/06/14 02:10:10;;;;;;;11.80;4.15;;;;;;;9.30;87.26;102382.28;5028428;28;20033;-86
2022/06/14 02:12:44;;;;;;;10.73;3.63;;;;;;;9.26;87.42;102371.06;5031343;28;20060;-86
2022/06/14 02:15:31;;;;;;;11.70;3.95;;;;;;;9.23;87.15;102380.50;5031166;28;20057;-86
2022/06/14 02:18:06;;;;;;;13.80;4.22;;;;;;;9.20;87.96;102383.09;5031176;28;20045;-86
2022/06/14 02:20:38;;;;;;;9.95;4.20;;;;;;;9.20;87.92;102383.97;5029899;28;20029;-86
2022/06/14 02:23:08;;;;;;;8.35;3.83;;;;;;;9.18;88.27;102371.84;5012375;28;20060;-86
2022/06/14 02:25:39;;;;;;;10.68;4.05;;;;;;;9.14;87.24;102373.56;5029002;28;20463;-86
2022/06/14 02:28:17;;;;;;;11.55;4.30;;;;;;;9.08;87.46;102371.78;5030826;28;20033;-86
2022/06/14 02:30:54;;;;;;;11.10;4.22;;;;;;;9.04;87.29;102371.75;5012411;28;20025;-86
2022/06/14 02:33:37;;;;;;;11.68;3.90;;;;;;;8.99;87.35;102371.75;5030302;28;20025;-86
2022/06/14 02:36:26;;;;;;;10.07;3.80;;;;;;;8.94;87.25;102367.41;5040078;28;20059;-86
2022/06/14 02:38:58;;;;;;;12.27;4.30;;;;;;;8.92;87.81;102364.78;5036067;28;20037;-86
2022/06/14 02:41:52;;;;;;;11.10;4.53;;;;;;;8.89;87.50;102362.16;5029718;28;20037;-86
2022/06/14 02:44:22;;;;;;;13.55;3.95;;;;;;;8.92;88.89;102362.22;5030429;28;20112;-86
2022/06/14 02:47:01;;;;;;;15.73;4.30;;;;;;;8.89;88.32;102359.59;5030814;28;20055;-86
2022/06/14 02:49:30;;;;;;;13.77;4.30;;;;;;;8.90;89.07;102357.88;5029754;28;20018;-86
2022/06/14 02:52:25;;;;;;;10.18;4.07;;;;;;;8.85;88.62;102356.97;5011477;28;20029;-86
2022/06/14 02:54:55;;;;;;;;;;;;;;;8.89;85.33;102353.53;5025591;28;20510;-86
2022/06/14 02:57:35;;;;;;;15.13;4.40;;;;;;;8.81;88.05;102360.38;5030314;28;19909;-86
2022/06/14 03:00:10;;;;;;;11.95;4.30;;;;;;;8.77;88.32;102362.09;5029701;28;20025;-86
2022/06/14 03:02:51;;;;;;;10.57;4.38;;;;;;;8.73;88.87;102361.16;5028589;28;20072;-86
2022/06/14 03:05:32;;;;;;;10.63;4.13;;;;;;;8.71;88.63;102356.88;5030274;28;20077;-86
2022/06/14 03:08:21;;;;;;;12.23;4.70;;;;;;;8.66;88.60;102362.00;5026467;28;20252;-86
2022/06/14 03:11:08;;;;;;;11.68;4.30;;;;;;;8.63;88.39;102363.69;5011886;28;20368;-86
2022/06/14 03:13:43;;;;;;;16.92;4.78;;;;;;;8.61;89.10;102358.50;5030136;28;20033;-86
2022/06/14 03:16:26;;;;;;;10.02;4.28;;;;;;;8.58;89.22;102360.19;5030278;28;20068;-86
2022/06/14 03:19:19;;;;;;;15.65;4.50;;;;;;;8.58;88.51;102361.06;5028655;28;20080;-86
2022/06/14 03:21:53;;;;;;;14.80;4.72;;;;;;;8.54;88.68;102367.03;5029718;28;20030;-86
2022/06/14 03:24:43;;;;;;;13.85;4.93;;;;;;;8.54;89.04;102367.03;5011536;28;20112;-86
2022/06/14 03:27:26;;;;;;;11.40;4.20;;;;;;;8.51;89.20;102361.88;5012611;28;20022;-86
2022/06/14 03:30:00;;;;;;;14.70;4.50;;;;;;;8.50;89.35;102365.28;5028380;28;20037;-86
2022/06/14 03:32:38;;;;;;;13.63;4.63;;;;;;;8.49;89.37;102360.09;5029630;28;20018;-86
2022/06/14 03:35:11;;;;;;;10.75;4.72;;;;;;;8.48;89.95;102363.53;5011491;28;20025;-86
2022/06/14 03:37:37;;;;;;;10.75;4.47;;;;;;;8.47;89.74;102359.22;5026792;28;20152;-86
2022/06/14 03:40:12;;;;;;;13.82;4.82;;;;;;;8.48;89.84;102369.56;5029104;28;20104;-86
2022/06/14 03:42:37;;;;;;;15.40;5.00;;;;;;;8.47;90.45;102362.66;5012258;28;20478;-86
2022/06/14 03:45:04;;;;;;;14.63;4.70;;;;;;;8.48;89.37;102368.69;5030034;28;20108;-86
2022/06/14 03:47:30;;;;;;;11.23;4.95;;;;;;;8.44;90.45;102365.25;5029412;28;20499;-86
2022/06/14 03:50:02;;;;;;;16.58;6.80;;;;;;;8.45;89.71;102361.81;5028378;28;20041;-86
2022/06/14 03:52:46;;;;;;;15.02;4.93;;;;;;;8.43;89.58;102363.50;5029375;28;20136;-86
2022/06/14 03:55:41;;;;;;;18.23;5.15;;;;;;;8.42;88.97;102360.91;5033806;28;20108;-86
2022/06/14 03:58:22;;;;;;;11.15;4.68;;;;;;;8.41;89.26;102354.88;5034930;28;20056;-86
2022/06/14 04:00:50;;;;;;;15.90;4.88;;;;;;;8.39;89.62;102356.59;5032910;28;20077;-86
2022/06/14 04:03:34;;;;;;;15.10;4.68;;;;;;;8.40;90.02;102360.88;5047451;28;20547;-86
2022/06/14 04:06:03;;;;;;;13.50;4.65;;;;;;;8.39;89.68;102371.22;5032727;28;20541;-86
2022/06/14 04:08:50;;;;;;;12.60;4.68;;;;;;;8.39;90.02;102366.06;5013234;28;20035;-86
2022/06/14 04:11:40;;;;;;;9.40;4.38;;;;;;;8.40;90.03;102367.75;5030342;28;20029;-86
2022/06/14 04:14:20;;;;;;;13.43;4.38;;;;;;;8.43;90.94;102370.38;5032717;28;20108;-86
2022/06/14 04:17:01;;;;;;;13.10;4.53;;;;;;;8.44;90.70;102372.13;5033638;28;20029;-86
2022/06/14 04:19:52;;;;;;;9.77;4.88;;;;;;;8.46;90.53;102376.44;5031386;28;20394;-86
2022/06/14 04:22:33;;;;;;;14.77;5.32;;;;;;;8.49;90.87;102375.59;5002506;28;20049;-86
2022/06/14 04:25:06;;;;;;;13.13;5.53;;;;;;;8.54;91.92;102379.97;5015131;28;20087;-86
2022/06/14 04:27:51;;;;;;;14.05;5.03;;;;;;;8.58;91.51;102378.28;5031004;28;20110;-86
2022/06/14 04:30:24;;;;;;;13.80;5.47;;;;;;;8.64;91.77;102386.09;5026054;28;20082;-86
2022/06/14 04:32:56;;;;;;;13.98;5.45;;;;;;;8.66;91.60;102387.84;5033246;28;20053;-86
2022/06/14 04:35:37;;;;;;;12.13;5.20;;;;;;;8.67;91.34;102383.53;5033261;28;20026;-87
2022/06/14 04:38:08;;;;;;;15.70;5.32;;;;;;;8.71;92.78;102381.00;5033166;28;20033;-86
2022/06/14 04:40:41;;;;;;;18.77;5.85;;;;;;;8.78;92.75;102378.47;5031601;28;20029;-89
2022/06/14 04:43:13;;;;;;;12.98;5.88;;;;;;;8.83;92.60;102382.81;5040761;28;20029;-89
2022/06/14 04:46:06;;;;;;;17.00;6.15;;;;;;;8.91;92.62;102385.47;5031314;28;20091;-89
2022/06/14 04:48:47;;;;;;;12.43;6.25;;;;;;;8.94;93.02;102372.56;5025184;28;20030;-89
2022/06/14 04:51:27;;;;;;;13.63;6.40;;;;;;;9.00;92.72;102382.97;5032179;28;20051;-88
2022/06/14 04:54:19;;;;;;;14.55;6.28;;;;;;;9.04;92.08;102382.13;5013744;28;20041;-90
2022/06/14 04:57:02;;;;;;;12.85;6.80;;;;;;;9.09;92.76;102377.81;5033099;28;20021;-89
2022/06/14 04:59:28;;;;;;;18.40;6.80;;;;;;;9.15;92.64;102385.63;5031480;28;20017;-89
2022/06/14 05:02:02;;;;;;;19.00;7.03;;;;;;;9.17;92.50;102381.34;5045911;28;20056;-89
2022/06/14 05:04:36;;;;;;;18.85;7.28;;;;;;;9.24;92.97;102377.94;5018128;28;20425;-89
2022/06/14 05:07:08;;;;;;;16.50;7.82;;;;;;;9.31;93.12;102378.84;5032728;28;20538;-89
2022/06/14 05:10:09;;;;;;;21.20;10.40;;;;;;;9.38;92.55;102376.31;5030925;28;20402;-89
2022/06/14 05:13:00;;;;;;;20.77;9.95;;;;;;;9.45;93.27;102375.47;5005161;28;20077;-89
2022/06/14 05:15:42;;;;;;;17.02;9.48;;;;;;;9.54;93.42;102381.56;5012277;28;20037;-89
2022/06/14 05:18:12;;;;;;;21.35;10.07;;;;;;;9.61;93.79;102378.16;5032462;28;20060;-88
2022/06/14 05:20:44;;;;;;;20.20;9.68;;;;;;;9.68;93.77;102390.28;5035399;28;20024;-89
2022/06/14 05:23:23;;;;;;;23.02;10.32;;;;;;;9.75;93.80;102387.72;5028471;28;20116;-89
2022/06/14 05:26:10;;;;;;;17.55;9.30;;;;;;;9.82;93.33;102386.03;5028437;28;20037;-89
2022/06/14 05:28:47;;;;;;;21.23;9.52;;;;;;;9.89;93.44;102387.78;5011113;28;20478;-89
2022/06/14 05:31:26;;;;;;;19.17;9.57;;;;;;;9.99;94.14;102389.53;5030647;28;20036;-86
2022/06/14 05:33:59;;;;;;;21.33;9.55;;;;;;;10.05;94.20;102392.13;5029752;28;20084;-86
2022/06/14 05:36:37;;;;;;;22.50;8.50;;;;;;;10.11;92.77;102392.16;5033200;28;20052;-87
2022/06/14 05:39:23;;;;;;;22.80;8.70;;;;;;;10.20;93.49;102400.00;5030283;28;20395;-87
2022/06/14 05:41:57;;;;;;;25.08;10.00;;;;;;;10.27;92.61;102395.69;5028626;28;20430;-87
2022/06/14 05:44:30;;;;;;;17.55;9.13;;;;;;;10.32;91.64;102386.19;5022362;28;20498;-86
2022/06/14 05:47:02;;;;;;;21.83;8.98;;;;;;;10.42;93.64;102398.34;5031611;28;20048;-86
2022/06/14 05:49:33;;;;;;;22.38;8.80;;;;;;;10.48;93.01;102402.66;5025786;28;20079;-86
2022/06/14 05:52:10;;;;;;;24.25;9.18;;;;;;;10.53;92.04;102387.97;5031599;28;20026;-86
2022/06/14 05:55:00;;;;;;;21.90;8.48;;;;;;;10.65;90.86;102400.94;5021977;28;20092;-87
2022/06/14 05:57:32;;;;;;;25.75;8.43;;;;;;;10.75;91.92;102394.91;5001096;28;20038;-86
2022/06/14 06:00:04;;;;;;;22.00;8.68;;;;;;;10.85;91.50;102399.22;5030228;28;20171;-86
2022/06/14 06:02:56;;;;;;;21.58;9.82;;;;;;;10.94;92.42;102396.63;5013481;28;20041;-87
2022/06/14 06:05:40;;;;;;;26.33;9.45;;;;;;;11.05;91.34;102397.47;5031270;28;20045;-86
2022/06/14 06:08:15;;;;;;;19.90;9.95;;;;;;;11.24;92.25;102405.25;5030882;28;20482;-87
2022/06/14 06:10:46;;;;;;;23.83;9.23;;;;;;;11.33;89.10;102398.31;5012575;28;20033;-87
2022/06/14 06:13:28;;;;;;;23.23;9.73;;;;;;;11.55;91.67;102400.84;5018677;28;20479;-87
2022/06/14 06:16:04;;;;;;;21.85;8.77;;;;;;;11.70;88.73;102401.69;5026595;28;20258;-87
2022/06/14 06:18:54;;;;;;;17.52;8.90;;;;;;;11.87;89.07;102404.28;5018727;28;20178;-87
2022/06/14 06:21:25;;;;;;;16.65;8.07;;;;;;;12.01;87.26;102401.63;5026507;28;20033;-87
2022/06/14 06:24:04;;;;;;;19.40;7.78;;;;;;;12.13;87.19;102406.75;5021239;28;20091;-87
2022/06/14 06:26:33;;;;;;;12.52;6.75;;;;;;;12.26;85.86;102403.22;5009829;28;20025;-86
2022/06/14 06:29:16;;;;;;;17.95;7.07;;;;;;;12.37;84.98;102397.94;5000396;28;20487;-86
2022/06/14 06:31:43;;;;;;;13.40;5.93;;;;;;;12.44;82.86;102402.22;5029867;28;20456;-86
2022/06/14 06:34:13;;;;;;;13.55;5.43;;;;;;;12.51;85.34;102394.38;5024847;28;20017;-86
2022/06/14 06:36:38;;;;;;;14.55;4.20;;;;;;;12.59;80.43;102396.91;5022923;28;20140;-87
2022/06/14 06:39:25;;;;;;;14.67;4.40;;;;;;;12.69;81.09;102400.34;5026612;28;20143;-87
2022/06/14 06:42:15;;;;;;;11.82;4.57;;;;;;;12.80;81.92;102403.72;5027478;28;20354;-87
2022/06/14 06:44:54;;;;;;;9.07;3.03;;;;;;;12.89;77.18;102403.63;5012089;28;20437;-87
2022/06/14 06:47:39;;;;;;;13.88;4.00;;;;;;;13.01;80.30;102411.34;5027050;28;20048;-87
2022/06/14 06:50:09;;;;;;;8.93;2.70;;;;;;;13.12;73.15;102403.41;5028169;28;20425;-87
2022/06/14 06:52:47;;;;;;;10.23;3.50;;;;;;;13.24;73.38;102405.94;5011630;28;20021;-87
2022/06/14 06:55:22;;;;;;;13.85;2.92;;;;;;;13.37;73.75;102404.97;5024024;28;20443;-87
2022/06/14 06:57:51;;;;;;;16.05;2.58;;;;;;;13.50;70.18;102413.50;5018468;28;20031;-87
2022/06/14 07:00:18;;;;;;;75.13;6.22;;;;;;;13.61;70.71;102409.91;5023686;28;20041;-87
2022/06/14 07:03:04;;;;;;;12.80;2.83;;;;;;;13.71;73.54;102410.66;5010979;28;20311;-87
2022/06/14 07:05:29;;;;;;;8.20;2.22;;;;;;;13.81;67.95;102401.84;5027912;28;20483;-87
2022/06/14 07:08:10;;;;;;;17.63;2.63;;;;;;;13.95;69.29;102404.28;5024008;28;20060;-87
2022/06/14 07:10:54;;;;;;;14.80;2.55;;;;;;;14.09;70.20;102410.19;5027442;28;20498;-87
2022/06/14 07:13:38;;;;;;;17.25;2.80;;;;;;;14.22;67.73;102407.41;5026921;28;20025;-87
2022/06/14 07:16:13;;;;;;;7.55;2.10;;;;;;;14.36;66.34;102414.16;5034278;28;20223;-87
2022/06/14 07:18:46;;;;;;;15.23;2.33;;;;;;;14.48;67.49;102403.56;5011031;28;20028;-87
2022/06/14 07:21:20;;;;;;;15.73;2.50;;;;;;;14.61;65.06;102410.31;5011531;28;20113;-87
2022/06/14 07:24:03;;;;;;;7.07;2.28;;;;;;;14.75;67.40;102408.38;5030201;28;20603;-87
2022/06/14 07:26:35;;;;;;;10.52;2.42;;;;;;;14.90;65.00;102404.66;5009781;28;20031;-87
2022/06/14 07:29:21;;;;;;;15.85;2.95;;;;;;;15.05;68.50;102400.91;5028150;28;20026;-87
2022/06/14 07:31:49;;;;;;;7.05;1.92;;;;;;;15.20;62.76;102406.75;5035691;28;20029;-87
2022/06/14 07:34:16;;;;;;;7.05;2.28;;;;;;;15.34;60.49;102403.88;5036315;28;20033;-87
2022/06/14 07:37:19;;;;;;;7.25;2.10;;;;;;;15.53;65.15;102400.06;5035998;28;20064;-88
2022/06/14 07:39:53;;;;;;;7.90;2.15;;;;;;;15.77;60.01;102403.94;5024394;28;20034;-88
2022/06/14 07:42:24;;;;;;;5.88;1.98;;;;;;;16.21;60.68;102392.53;5050029;28;20060;-88
2022/06/14 07:44:53;;;;;;;6.43;1.63;;;;;;;17.45;55.47;102391.22;5034334;28;20034;-87
2022/06/14 07:47:34;;;;;;;7.97;2.30;;;;;;;19.09;53.90;102398.44;5018545;28;20526;-88
2022/06/14 07:50:02;;;;;;;6.53;2.00;;;;;;;20.37;47.31;102390.19;5036700;28;20128;-88
2022/06/14 07:52:42;;;;;;;7.32;2.35;;;;;;;21.48;50.02;102389.91;5041339;28;20017;-88
2022/06/14 07:55:15;;;;;;;6.93;2.05;;;;;;;22.30;46.40;102388.75;5033081;28;20041;-88
2022/06/14 07:57:44;;;;;;;7.45;2.10;;;;;;;22.93;42.82;102394.47;5016967;28;20112;-88
2022/06/14 08:03:16;;;;;;;8.45;2.03;;;;;;;23.88;41.15;102389.38;5029695;28;20084;-88
2022/06/14 08:05:46;;;;;;;8.68;2.45;;;;;;;24.09;37.01;102391.81;5040159;28;20024;-88
2022/06/14 08:08:19;;;;;;;5.78;1.90;;;;;;;24.25;40.93;102390.03;5036406;28;20512;-89
2022/06/14 08:10:49;;;;;;;7.37;2.10;;;;;;;24.21;38.50;102388.50;5042664;28;20032;-89
2022/06/14 08:13:22;;;;;;;6.05;1.75;;;;;;;23.82;39.86;102394.16;5036907;28;20100;-89
2022/06/14 08:15:52;;;;;;;7.10;2.30;;;;;;;23.33;40.64;102390.63;5036838;28;20036;-89
2022/06/14 08:18:40;;;;;;;4.57;2.42;;;;;;;22.87;42.03;102378.88;5032171;28;20032;-89
2022/06/14 08:21:18;;;;;;;7.20;2.13;;;;;;;22.52;44.69;102380.63;5035379;28;20108;-89
2022/06/14 08:23:49;;;;;;;8.02;2.42;;;;;;;22.27;41.70;102379.16;5035144;28;20084;-88
2022/06/14 08:26:36;;;;;;;8.02;2.60;;;;;;;22.32;45.07;102378.94;5041875;28;20054;-89
2022/06/14 08:29:13;;;;;;;8.50;2.38;;;;;;;22.10;44.02;102371.22;5035586;28;20120;-89
2022/06/14 08:32:10;;;;;;;6.43;2.50;;;;;;;21.98;42.55;102377.91;5042631;28;20017;-88
2022/06/14 08:34:54;;;;;;;6.13;2.17;;;;;;;21.92;43.50;102380.81;5013046;28;20088;-90
2022/06/14 08:37:35;;;;;;;8.32;2.67;;;;;;;21.92;45.12;102377.31;5023016;28;20026;-90
2022/06/14 08:40:28;;;;;;;6.70;2.60;;;;;;;22.01;46.25;102369.84;5038617;28;20040;-90
2022/06/14 08:43:10;;;;;;;7.20;2.35;;;;;;;21.97;44.43;102370.91;5026986;28;20041;-89
2022/06/14 08:45:40;;;;;;;7.63;2.17;;;;;;;22.17;46.28;102359.41;5036777;28;20036;-90
2022/06/14 08:48:36;;;;;;;6.88;2.40;;;;;;;22.29;44.50;102365.91;5034926;28;20021;-89
2022/06/14 08:51:11;;;;;;;7.90;2.42;;;;;;;21.99;43.23;102371.69;5037191;28;20021;-89
2022/06/14 08:54:08;;;;;;;10.50;2.33;;;;;;;21.88;46.66;102368.69;5033412;28;20064;-89
2022/06/14 08:57:08;;;;;;;8.50;2.72;;;;;;;22.24;46.96;102359.97;5030437;28;20021;-89
2022/06/14 08:59:55;;;;;;;8.35;2.40;;;;;;;22.37;46.47;102363.75;5013523;28;20490;-89
2022/06/14 09:02:47;;;;;;;6.93;2.67;;;;;;;22.34;45.52;102356.81;5032311;28;20046;-89
2022/06/14 09:05:39;;;;;;;8.80;2.50;;;;;;;22.37;45.06;102366.38;5015029;28;20552;-89
2022/06/14 09:08:40;;;;;;;8.60;2.70;;;;;;;22.46;42.26;102364.13;5014293;28;20071;-89
2022/06/14 09:11:22;;;;;;;13.35;3.25;;;;;;;22.34;40.13;102355.94;5032704;28;20501;-88
2022/06/14 09:14:06;;;;;;;8.13;2.50;;;;;;;22.30;44.29;102360.53;5030518;28;20112;-89
2022/06/14 09:16:44;;;;;;;16.65;3.10;;;;;;;22.46;45.49;102355.34;5032495;28;20577;-89
2022/06/14 09:19:34;;;;;;;12.93;3.00;;;;;;;22.61;45.32;102353.72;5032324;28;20049;-89
2022/06/14 09:22:16;;;;;;;9.77;2.53;;;;;;;22.82;45.74;102358.84;5004039;28;20471;-89
2022/06/14 09:24:53;;;;;;;6.55;2.47;;;;;;;22.96;44.17;102357.25;5032174;28;20434;-89
2022/06/14 09:27:52;;;;;;;6.63;2.70;;;;;;;22.82;41.82;102352.69;5024089;28;20541;-89
2022/06/14 09:30:41;;;;;;;7.25;2.53;;;;;;;22.82;42.97;102361.47;5022152;28;20029;-89
2022/06/14 09:33:15;;;;;;;8.20;2.60;;;;;;;22.00;41.63;102357.56;5032985;28;20037;-89
2022/06/14 09:36:05;;;;;;;7.63;2.40;;;;;;;21.44;44.37;102354.88;5013728;28;20021;-89
2022/06/14 09:38:46;;;;;;;9.68;3.33;;;;;;;20.89;43.08;102365.16;5017167;28;20023;-89
2022/06/14 09:41:45;;;;;;;9.00;2.97;;;;;;;20.97;46.12;102361.34;5029585;28;20079;-89
2022/06/14 09:44:19;;;;;;;7.38;2.63;;;;;;;21.11;44.33;102349.28;5013633;28;20056;-89
2022/06/14 09:47:13;;;;;;;6.88;2.70;;;;;;;20.97;45.14;102342.88;5032080;28;20056;-89
2022/06/14 09:49:42;;;;;;;20.10;3.03;;;;;;;20.61;44.64;102348.78;5016281;28;20036;-89
2022/06/14 09:52:44;;;;;;;8.48;2.50;;;;;;;20.59;44.51;102345.38;5019172;28;20030;-88
2022/06/14 09:55:47;;;;;;;6.68;2.58;;;;;;;21.03;46.03;102338.19;5022077;28;20083;-89
2022/06/14 09:58:37;;;;;;;8.90;2.70;;;;;;;21.57;46.12;102336.69;5018370;28;20074;-89
2022/06/14 10:01:25;;;;;;;5.47;2.40;;;;;;;21.86;44.03;102336.22;5011797;28;20045;-89
2022/06/14 10:04:06;;;;;;;7.63;2.50;;;;;;;21.60;40.40;102321.59;5009777;28;20037;-88
2022/06/14 10:06:50;;;;;;;7.32;2.60;;;;;;;21.39;42.46;102333.13;5031010;28;20035;-89
2022/06/14 10:09:44;;;;;;;9.63;3.10;;;;;;;21.49;44.20;102326.50;5013555;28;20445;-88
2022/06/14 10:12:28;;;;;;;5.57;2.70;;;;;;;21.45;43.86;102319.66;5031220;28;20093;-89
2022/06/14 10:15:03;;;;;;;6.18;2.60;;;;;;;21.74;45.26;102317.44;5003901;28;20040;-89
2022/06/14 10:17:54;;;;;;;6.18;2.50;;;;;;;21.79;43.72;102321.59;5011713;28;20434;-88
2022/06/14 10:20:47;;;;;;;6.78;2.35;;;;;;;21.89;44.42;102322.00;5040449;28;20033;-89
2022/06/14 10:23:34;;;;;;;9.00;2.67;;;;;;;21.88;42.25;102315.88;5021111;28;20025;-89
2022/06/14 10:29:27;;;;;;;9.55;2.60;;;;;;;21.97;41.90;102307.53;5027921;28;20398;-88
2022/06/14 10:32:11;;;;;;;10.82;3.40;;;;;;;21.50;42.83;102303.59;5009117;28;20029;-88
2022/06/14 10:34:53;;;;;;;8.50;2.92;;;;;;;21.37;43.25;102307.72;5020196;28;20033;-88
2022/06/14 10:37:40;;;;;;;7.32;3.35;;;;;;;21.42;43.99;102308.41;5030762;28;20105;-89
2022/06/14 10:40:05;;;;;;;7.43;3.50;;;;;;;21.34;43.46;102305.25;5043891;28;20466;-89
2022/06/14 10:42:59;;;;;;;11.15;3.05;;;;;;;21.55;45.01;102298.97;5031154;28;20502;-89
2022/06/14 10:45:38;;;;;;;9.60;2.90;;;;;;;21.65;42.27;102287.06;5033718;28;20043;-89
2022/06/14 10:48:31;;;;;;;8.73;3.70;;;;;;;21.79;43.84;102291.69;5030480;28;20115;-89
2022/06/14 10:51:23;;;;;;;7.10;3.10;;;;;;;21.87;45.03;102292.19;5031128;28;20021;-89
2022/06/14 10:53:58;;;;;;;10.45;3.00;;;;;;;22.02;44.11;102278.28;5034760;28;20100;-89
2022/06/14 10:56:39;;;;;;;8.77;3.25;;;;;;;22.02;40.29;102287.06;5038726;28;20434;-89
2022/06/14 10:59:19;;;;;;;7.03;2.70;;;;;;;21.84;40.93;102274.69;5030291;28;20034;-88
2022/06/14 11:01:50;;;;;;;7.88;3.10;;;;;;;21.72;43.08;102277.91;5011383;28;20061;-89
2022/06/14 11:04:55;;;;;;;8.75;3.10;;;;;;;21.78;43.13;102259.16;5027036;28;20029;-88
2022/06/14 11:07:45;;;;;;;11.73;4.03;;;;;;;21.67;43.26;102262.31;4936129;28;20444;-88
2022/06/14 11:10:26;;;;;;;10.90;3.88;;;;;;;21.59;43.61;102261.81;5033431;28;20386;-89
2022/06/14 11:12:58;;;;;;;12.25;4.40;;;;;;;21.57;44.92;102257.53;5038446;28;20025;-88
2022/06/14 11:15:38;;;;;;;8.02;3.47;;;;;;;21.49;45.57;102259.69;5043928;28;20491;-89
2022/06/14 11:18:41;;;;;;;10.82;3.63;;;;;;;21.42;44.04;102260.91;5029290;28;20529;-88
2022/06/14 11:21:29;;;;;;;10.45;3.28;;;;;;;21.25;41.48;102257.25;5019605;28;20263;-88
2022/06/14 11:24:12;;;;;;;5.53;3.25;;;;;;;21.08;41.20;102259.78;5030206;28;20025;-89
2022/06/14 11:26:50;;;;;;;10.57;3.40;;;;;;;20.99;42.47;102256.69;5029284;28;20024;-88
2022/06/14 11:29:33;;;;;;;10.00;3.15;;;;;;;20.80;43.38;102254.88;5027242;28;20033;-88
2022/06/14 11:32:13;;;;;;;7.00;2.90;;;;;;;20.72;43.55;102245.56;5029235;28;20022;-88
2022/06/14 11:35:04;;;;;;;8.25;3.92;;;;;;;20.77;44.76;102238.31;5043730;28;20372;-87
2022/06/14 11:38:07;;;;;;;9.07;3.60;;;;;;;20.81;44.43;102246.00;5028577;28;20021;-88
2022/06/14 11:40:41;;;;;;;10.18;3.67;;;;;;;20.86;45.95;102227.38;5029904;28;20026;-88
2022/06/14 11:43:06;;;;;;;11.07;3.85;;;;;;;21.03;46.01;102231.88;5030014;28;20032;-88
2022/06/14 11:45:51;;;;;;;10.70;3.57;;;;;;;21.11;46.04;102230.59;5029997;28;20034;-88
2022/06/14 11:48:26;;;;;;;7.90;3.40;;;;;;;21.19;46.12;102220.59;5028449;28;20300;-88
2022/06/14 11:50:56;;;;;;;11.35;3.85;;;;;;;21.11;45.74;102224.47;5014204;28;20070;-87
2022/06/14 11:54:01;;;;;;;8.63;3.88;;;;;;;21.07;44.59;102221.13;5029187;28;20068;-88
2022/06/14 11:56:42;;;;;;;9.10;3.90;;;;;;;21.02;43.91;102228.38;5029351;28;20256;-87
2022/06/14 11:59:13;;;;;;;11.75;4.15;;;;;;;20.94;44.39;102225.25;5012075;28;20030;-90
2022/06/14 12:02:01;;;;;;;10.27;3.85;;;;;;;20.86;42.31;102230.00;5027553;28;20549;-91
2022/06/14 12:04:47;;;;;;;7.15;4.20;;;;;;;20.78;44.08;102224.22;5014754;28;20513;-91
2022/06/14 12:07:25;;;;;;;8.93;4.20;;;;;;;20.72;42.21;102224.50;5029333;28;20405;-90
2022/06/14 12:10:02;;;;;;;8.38;4.10;;;;;;;20.61;42.68;102214.41;5028839;28;20025;-89
2022/06/14 12:12:35;;;;;;;11.20;4.30;;;;;;;20.55;42.88;102212.03;5029969;28;20037;-90
2022/06/14 12:15:09;;;;;;;9.50;4.20;;;;;;;20.62;43.08;102213.47;5039300;28;20029;-91
2022/06/14 12:17:36;;;;;;;8.93;3.33;;;;;;;20.64;43.65;102218.69;5032479;28;20112;-90
2022/06/14 12:20:13;;;;;;;8.93;3.50;;;;;;;20.68;47.37;102210.56;5033313;28;20037;-90
2022/06/14 12:22:50;;;;;;;9.27;3.40;;;;;;;20.66;43.83;102216.84;5005046;28;20050;-91
2022/06/14 12:28:30;;;;;;;9.82;3.30;;;;;;;20.75;46.07;102209.38;5033256;28;20513;-90
2022/06/14 12:31:04;;;;;;;10.43;3.45;;;;;;;20.83;46.35;102211.69;5032741;28;20029;-87